createdAt,value
2022-08-27T00:01:37.324Z,19.39
2022-08-27T00:04:04.206Z,19.39
2022-08-27T00:06:30.939Z,19.38
2022-08-27T00:08:58.322Z,19.34
2022-08-27T00:11:25.560Z,19.30
2022-08-27T00:13:52.620Z,19.28
2022-08-27T00:16:20.142Z,19.32
2022-08-27T00:18:48.409Z,19.27
2022-08-27T00:21:16.093Z,19.27
2022-08-27T00:23:42.696Z,19.29
2022-08-27T00:26:10.574Z,19.30
2022-08-27T00:28:37.395Z,19.28
2022-08-27T00:31:04.082Z,19.24
2022-08-27T00:33:30.811Z,19.20
2022-08-27T00:35:57.674Z,19.19
2022-08-27T00:38:24.440Z,19.18
2022-08-27T00:40:52.509Z,19.17
2022-08-27T00:43:31.943Z,19.14
2022-08-27T00:46:16.625Z,19.09
2022-08-27T00:48:43.267Z,19.09
2022-08-27T00:51:10.796Z,19.07
2022-08-27T00:53:39.388Z,19.07
2022-08-27T00:56:15.607Z,19.06
2022-08-27T00:58:45.356Z,19.04
2022-08-27T01:01:16.545Z,19.03
2022-08-27T01:03:47.581Z,19.00
2022-08-27T01:06:16.634Z,18.98
2022-08-27T01:08:52.051Z,18.93
2022-08-27T01:11:19.378Z,18.90
2022-08-27T01:13:59.726Z,18.90
2022-08-27T01:16:35.840Z,18.89
2022-08-27T01:19:08.089Z,18.87
2022-08-27T01:21:53.370Z,18.89
2022-08-27T01:24:25.743Z,18.92
2022-08-27T01:26:53.351Z,18.91
2022-08-27T01:29:20.287Z,18.87
2022-08-27T01:31:46.894Z,18.84
2022-08-27T01:34:13.619Z,18.85
2022-08-27T01:36:40.533Z,18.84
2022-08-27T01:39:08.088Z,18.82
2022-08-27T01:41:35.557Z,18.80
2022-08-27T01:44:04.294Z,18.78
2022-08-27T01:46:31.079Z,18.78
2022-08-27T01:48:57.773Z,18.78
2022-08-27T01:51:24.351Z,18.77
2022-08-27T01:53:51.154Z,18.74
2022-08-27T01:56:18.236Z,18.73
2022-08-27T01:58:45.639Z,18.72
2022-08-27T02:01:16.857Z,18.72
2022-08-27T02:03:44.690Z,18.73
2022-08-27T02:06:12.135Z,18.69
2022-08-27T02:08:39.525Z,18.64
2022-08-27T02:11:08.344Z,18.63
2022-08-27T02:13:35.286Z,18.63
2022-08-27T02:16:01.945Z,18.64
2022-08-27T02:18:28.600Z,18.62
2022-08-27T02:20:55.105Z,18.61
2022-08-27T02:23:22.698Z,18.60
2022-08-27T02:25:49.257Z,18.60
2022-08-27T02:28:16.392Z,18.61
2022-08-27T02:30:43.251Z,18.61
2022-08-27T02:33:10.991Z,18.60
2022-08-27T02:35:43.094Z,18.59
2022-08-27T02:38:12.887Z,18.58
2022-08-27T02:40:40.432Z,18.56
2022-08-27T02:43:07.739Z,18.53
2022-08-27T02:45:35.520Z,18.48
2022-08-27T02:48:02.543Z,18.40
2022-08-27T02:50:29.190Z,18.34
2022-08-27T02:52:55.889Z,18.29
2022-08-27T02:55:23.065Z,18.26
2022-08-27T02:57:49.676Z,18.27
2022-08-27T03:00:19.888Z,18.23
2022-08-27T03:02:47.079Z,18.18
2022-08-27T03:05:14.791Z,18.10
2022-08-27T03:07:42.295Z,18.04
2022-08-27T03:10:10.249Z,18.03
2022-08-27T03:12:36.918Z,18.02
2022-08-27T03:15:05.813Z,17.98
2022-08-27T03:17:51.088Z,17.94
2022-08-27T03:20:18.906Z,17.95
2022-08-27T03:22:46.011Z,17.91
2022-08-27T03:25:13.590Z,17.87
2022-08-27T03:27:40.764Z,17.80
2022-08-27T03:30:11.862Z,17.71
2022-08-27T03:32:39.165Z,17.68
2022-08-27T03:35:06.265Z,17.65
2022-08-27T03:37:35.036Z,17.61
2022-08-27T03:40:02.164Z,17.56
2022-08-27T03:42:28.940Z,17.54
2022-08-27T03:44:55.511Z,17.52
2022-08-27T03:47:23.722Z,17.50
2022-08-27T03:49:50.715Z,17.48
2022-08-27T03:52:19.333Z,17.46
2022-08-27T03:54:46.040Z,17.41
2022-08-27T03:57:13.062Z,17.36
2022-08-27T03:59:58.441Z,17.32
2022-08-27T04:02:25.253Z,17.22
2022-08-27T04:04:52.004Z,17.16
2022-08-27T04:07:19.064Z,17.11
2022-08-27T04:09:46.628Z,17.06
2022-08-27T04:12:13.196Z,17.01
2022-08-27T04:14:40.199Z,16.97
2022-08-27T04:17:06.817Z,16.92
2022-08-27T04:19:35.106Z,16.84
2022-08-27T04:22:04.336Z,16.78
2022-08-27T04:24:33.173Z,16.76
2022-08-27T04:27:01.266Z,16.74
2022-08-27T04:29:28.609Z,16.72
2022-08-27T04:31:56.128Z,16.73
2022-08-27T04:34:22.957Z,16.71
2022-08-27T04:36:50.294Z,16.72
2022-08-27T04:39:17.024Z,16.73
2022-08-27T04:41:44.668Z,16.71
2022-08-27T04:44:11.698Z,16.71
2022-08-27T04:46:40.521Z,16.71
2022-08-27T04:49:10.848Z,16.72
2022-08-27T04:51:39.969Z,16.76
2022-08-27T04:54:08.115Z,16.78
2022-08-27T04:56:35.962Z,16.82
2022-08-27T04:59:05.095Z,16.86
2022-08-27T05:01:32.349Z,16.81
2022-08-27T05:03:59.091Z,16.82
2022-08-27T05:06:25.883Z,16.83
2022-08-27T05:08:53.917Z,16.88
2022-08-27T05:11:22.607Z,16.92
2022-08-27T05:13:50.484Z,16.98
2022-08-27T05:16:22.752Z,16.99
2022-08-27T05:18:51.778Z,17.05
2022-08-27T05:21:24.049Z,17.10
2022-08-27T05:23:52.032Z,17.19
2022-08-27T05:26:18.870Z,17.27
2022-08-27T05:28:45.606Z,17.36
2022-08-27T05:31:14.631Z,17.44
2022-08-27T05:33:43.509Z,17.63
2022-08-27T05:36:23.047Z,17.85
2022-08-27T05:38:52.509Z,17.96
2022-08-27T05:41:25.019Z,17.93
2022-08-27T05:44:24.088Z,17.90
2022-08-27T05:46:52.369Z,17.81
2022-08-27T05:49:18.936Z,17.74
2022-08-27T05:51:45.610Z,17.70
2022-08-27T05:54:21.109Z,17.64
2022-08-27T05:56:51.554Z,17.59
2022-08-27T05:59:37.244Z,17.53
2022-08-27T06:02:04.315Z,17.47
2022-08-27T06:04:30.980Z,17.48
2022-08-27T06:06:57.635Z,17.52
2022-08-27T06:09:28.881Z,17.58
2022-08-27T06:12:00.257Z,18.00
2022-08-27T06:14:27.702Z,18.79
2022-08-27T06:16:54.268Z,19.59
2022-08-27T06:19:21.404Z,20.33
2022-08-27T06:22:00.047Z,20.99
2022-08-27T06:24:28.999Z,21.64
2022-08-27T06:26:55.591Z,22.12
2022-08-27T06:29:23.673Z,22.59
2022-08-27T06:31:50.478Z,22.87
2022-08-27T06:34:17.804Z,23.20
2022-08-27T06:36:44.520Z,23.36
2022-08-27T06:39:15.491Z,23.64
2022-08-27T06:41:43.898Z,23.92
2022-08-27T06:44:11.215Z,24.19
2022-08-27T06:46:38.849Z,24.54
2022-08-27T06:49:06.003Z,24.83
2022-08-27T06:51:34.626Z,25.00
2022-08-27T06:54:04.296Z,25.14
2022-08-27T06:56:31.625Z,25.29
2022-08-27T06:59:04.000Z,25.34
2022-08-27T07:01:36.992Z,25.40
2022-08-27T07:04:07.410Z,24.98
2022-08-27T07:06:35.991Z,24.93
2022-08-27T07:09:03.913Z,25.12
2022-08-27T07:11:33.807Z,25.36
2022-08-27T07:14:01.185Z,25.31
2022-08-27T07:16:29.317Z,25.31
2022-08-27T07:19:01.895Z,25.46
2022-08-27T07:21:31.821Z,25.39
2022-08-27T07:23:59.848Z,25.46
2022-08-27T07:26:26.687Z,25.41
2022-08-27T07:28:53.650Z,25.34
2022-08-27T07:31:22.422Z,25.25
2022-08-27T07:33:52.594Z,25.20
2022-08-27T07:36:21.615Z,25.20
2022-08-27T07:38:57.059Z,25.21
2022-08-27T07:41:31.996Z,25.04
2022-08-27T07:44:18.866Z,24.78
2022-08-27T07:46:47.999Z,24.59
2022-08-27T07:49:15.455Z,24.24
2022-08-27T07:51:41.990Z,24.07
2022-08-27T07:54:09.015Z,23.93
2022-08-27T07:56:35.779Z,23.77
2022-08-27T07:59:02.627Z,23.39
2022-08-27T08:01:30.181Z,23.09
2022-08-27T08:03:57.097Z,22.96
2022-08-27T08:06:24.061Z,22.93
2022-08-27T08:08:50.626Z,22.93
2022-08-27T08:11:18.839Z,22.86
2022-08-27T08:13:46.769Z,22.93
2022-08-27T08:16:13.941Z,22.98
2022-08-27T08:18:40.724Z,22.94
2022-08-27T08:21:10.713Z,23.00
2022-08-27T08:23:38.418Z,23.04
2022-08-27T08:26:05.623Z,23.08
2022-08-27T08:28:32.277Z,23.00
2022-08-27T08:30:59.406Z,22.95
2022-08-27T08:33:27.564Z,22.91
2022-08-27T08:35:54.668Z,22.93
2022-08-27T08:38:23.319Z,22.96
2022-08-27T08:40:54.513Z,22.96
2022-08-27T08:43:31.390Z,23.02
2022-08-27T08:46:03.891Z,23.09
2022-08-27T08:48:31.360Z,23.09
2022-08-27T08:51:07.637Z,23.08
2022-08-27T08:53:59.147Z,23.21
2022-08-27T08:56:31.329Z,23.26
2022-08-27T08:59:25.209Z,23.27
2022-08-27T09:01:52.043Z,23.41
2022-08-27T09:04:18.642Z,23.68
2022-08-27T09:07:00.782Z,23.98
2022-08-27T09:09:39.300Z,24.05
2022-08-27T09:12:15.248Z,24.02
2022-08-27T09:14:57.858Z,23.84
2022-08-27T09:17:24.737Z,23.57
2022-08-27T09:19:52.663Z,23.49
2022-08-27T09:22:47.249Z,23.43
2022-08-27T09:25:22.418Z,23.30
2022-08-27T09:27:54.815Z,23.21
2022-08-27T09:30:30.905Z,22.97
2022-08-27T09:33:04.264Z,22.83
2022-08-27T09:35:44.865Z,22.81
2022-08-27T09:38:19.697Z,22.76
2022-08-27T09:40:50.623Z,22.72
2022-08-27T09:43:17.329Z,22.74
2022-08-27T09:45:51.422Z,22.87
2022-08-27T09:48:25.679Z,22.96
2022-08-27T09:50:55.994Z,22.81
2022-08-27T09:53:44.240Z,22.72
2022-08-27T09:56:28.202Z,22.77
2022-08-27T09:59:06.547Z,22.82
2022-08-27T10:01:35.962Z,23.01
2022-08-27T10:04:11.352Z,23.36
2022-08-27T10:06:45.085Z,23.76
2022-08-27T10:09:33.245Z,23.92
2022-08-27T10:12:08.585Z,24.07
2022-08-27T10:14:44.121Z,24.07
2022-08-27T10:17:42.090Z,24.01
2022-08-27T10:20:25.854Z,23.96
2022-08-27T10:23:22.041Z,23.90
2022-08-27T10:25:51.522Z,23.86
2022-08-27T10:28:38.869Z,24.02
2022-08-27T10:31:19.542Z,24.20
2022-08-27T10:33:56.994Z,24.45
2022-08-27T10:36:48.219Z,24.78
2022-08-27T10:39:37.165Z,25.09
2022-08-27T10:42:26.645Z,25.31
2022-08-27T10:45:11.598Z,25.24
2022-08-27T10:47:51.788Z,24.97
2022-08-27T10:50:37.432Z,24.74
2022-08-27T10:53:21.845Z,24.59
2022-08-27T10:55:53.639Z,24.53
2022-08-27T10:58:38.670Z,24.61
2022-08-27T11:01:24.041Z,24.73
2022-08-27T11:03:56.491Z,24.93
2022-08-27T11:06:44.165Z,25.07
2022-08-27T11:09:17.240Z,25.09
2022-08-27T11:15:15.610Z,24.95
2022-08-27T11:17:45.776Z,24.72
2022-08-27T11:20:18.717Z,24.72
2022-08-27T11:22:53.990Z,24.60
2022-08-27T11:25:26.650Z,24.59
2022-08-27T11:27:56.448Z,24.52
2022-08-27T11:30:34.819Z,24.47
2022-08-27T11:33:20.202Z,24.47
2022-08-27T11:36:08.592Z,24.31
2022-08-27T11:38:50.487Z,24.13
2022-08-27T11:41:29.412Z,24.08
2022-08-27T11:44:13.864Z,24.24
2022-08-27T11:46:53.590Z,24.40
2022-08-27T11:49:48.616Z,24.50
2022-08-27T11:52:30.534Z,24.52
2022-08-27T11:55:24.021Z,24.50
2022-08-27T11:58:05.213Z,24.49
2022-08-27T12:00:36.183Z,24.53
2022-08-27T12:03:10.167Z,24.64
2022-08-27T12:05:48.337Z,24.64
2022-08-27T12:08:29.697Z,24.73
2022-08-27T12:11:30.923Z,24.78
2022-08-27T12:14:22.243Z,24.75
2022-08-27T12:17:03.713Z,24.69
2022-08-27T12:19:33.324Z,24.71
2022-08-27T12:22:24.590Z,24.71
2022-08-27T12:24:55.665Z,24.78
2022-08-27T12:27:22.460Z,24.77
2022-08-27T12:29:53.994Z,24.61
2022-08-27T12:32:24.542Z,24.42
2022-08-27T12:34:59.636Z,24.20
2022-08-27T12:37:36.008Z,23.96
2022-08-27T12:40:07.043Z,23.92
2022-08-27T12:42:33.614Z,24.04
2022-08-27T12:45:00.285Z,24.10
2022-08-27T12:47:27.247Z,24.03
2022-08-27T12:49:59.659Z,24.11
2022-08-27T12:52:34.961Z,24.18
2022-08-27T12:55:16.769Z,24.21
2022-08-27T12:57:52.485Z,24.32
2022-08-27T13:00:26.292Z,24.52
2022-08-27T13:03:11.781Z,24.70
2022-08-27T13:05:44.490Z,24.93
2022-08-27T13:08:32.059Z,24.99
2022-08-27T13:11:19.415Z,24.91
2022-08-27T13:13:45.989Z,24.80
2022-08-27T13:16:12.836Z,24.66
2022-08-27T13:18:40.541Z,24.47
2022-08-27T13:21:19.165Z,24.23
2022-08-27T13:24:02.108Z,24.20
2022-08-27T13:26:34.057Z,24.22
2022-08-27T13:29:03.705Z,24.18
2022-08-27T13:31:31.908Z,24.16
2022-08-27T13:33:59.965Z,24.17
2022-08-27T13:36:27.765Z,24.20
2022-08-27T13:39:02.447Z,24.29
2022-08-27T13:41:33.360Z,24.41
2022-08-27T13:44:31.390Z,24.53
2022-08-27T13:47:05.308Z,24.63
2022-08-27T13:49:39.734Z,24.67
2022-08-27T13:52:21.829Z,24.83
2022-08-27T13:54:51.723Z,24.88
2022-08-27T13:57:30.830Z,24.88
2022-08-27T14:00:11.181Z,24.90
2022-08-27T14:02:37.806Z,24.87
2022-08-27T14:05:27.987Z,24.81
2022-08-27T14:08:12.332Z,24.86
2022-08-27T14:10:47.296Z,24.98
2022-08-27T14:13:24.656Z,25.20
2022-08-27T14:15:54.300Z,25.27
2022-08-27T14:18:42.210Z,25.28
2022-08-27T14:21:12.866Z,25.17
2022-08-27T14:23:39.743Z,25.08
2022-08-27T14:26:07.888Z,25.03
2022-08-27T14:28:34.515Z,24.99
2022-08-27T14:31:01.080Z,24.85
2022-08-27T14:33:27.969Z,24.73
2022-08-27T14:35:54.714Z,24.61
2022-08-27T14:38:23.813Z,24.46
2022-08-27T14:40:52.909Z,24.47
2022-08-27T14:43:20.061Z,24.59
2022-08-27T14:45:50.455Z,24.66
2022-08-27T14:48:21.966Z,24.68
2022-08-27T14:50:55.543Z,24.74
2022-08-27T14:53:22.150Z,24.87
2022-08-27T14:55:51.654Z,24.91
2022-08-27T14:58:19.478Z,24.94
2022-08-27T15:03:13.135Z,24.78
2022-08-27T15:05:40.301Z,24.64
2022-08-27T15:08:07.686Z,24.39
2022-08-27T15:10:39.705Z,24.30
2022-08-27T15:13:06.481Z,24.26
2022-08-27T15:15:33.104Z,24.29
2022-08-27T15:17:59.706Z,24.36
2022-08-27T15:20:26.358Z,24.41
2022-08-27T15:22:53.102Z,24.32
2022-08-27T15:25:20.543Z,24.32
2022-08-27T15:27:47.055Z,24.32
2022-08-27T15:30:16.089Z,24.30
2022-08-27T15:32:45.894Z,24.19
2022-08-27T15:35:16.439Z,24.15
2022-08-27T15:37:44.489Z,24.16
2022-08-27T15:40:14.349Z,24.11
2022-08-27T15:42:41.511Z,24.08
2022-08-27T15:45:09.418Z,24.09
2022-08-27T15:47:36.117Z,24.10
2022-08-27T15:50:03.513Z,24.09
2022-08-27T15:52:41.091Z,24.13
2022-08-27T15:55:19.834Z,24.17
2022-08-27T15:57:46.680Z,24.20
2022-08-27T16:00:14.058Z,24.23
2022-08-27T16:02:41.514Z,24.22
2022-08-27T16:05:09.015Z,24.13
2022-08-27T16:07:35.963Z,24.03
2022-08-27T16:10:08.874Z,23.96
2022-08-27T16:12:35.963Z,23.95
2022-08-27T16:15:04.182Z,23.89
2022-08-27T16:17:30.928Z,23.89
2022-08-27T16:19:57.951Z,23.83
2022-08-27T16:22:24.623Z,23.81
2022-08-27T16:24:51.196Z,23.87
2022-08-27T16:27:17.932Z,23.78
2022-08-27T16:29:44.644Z,23.69
2022-08-27T16:32:16.821Z,23.70
2022-08-27T16:34:47.575Z,23.69
2022-08-27T16:37:22.674Z,23.70
2022-08-27T16:39:49.404Z,23.69
2022-08-27T16:42:16.056Z,23.65
2022-08-27T16:44:42.840Z,23.65
2022-08-27T16:47:09.540Z,23.67
2022-08-27T16:49:55.125Z,23.68
2022-08-27T16:52:23.569Z,23.70
2022-08-27T16:54:51.329Z,23.67
2022-08-27T16:57:18.006Z,23.62
2022-08-27T16:59:44.719Z,23.52
2022-08-27T17:02:22.285Z,23.43
2022-08-27T17:05:01.402Z,23.30
2022-08-27T17:07:40.358Z,23.23
2022-08-27T17:10:13.227Z,23.21
2022-08-27T17:12:40.736Z,23.19
2022-08-27T17:15:08.164Z,23.16
2022-08-27T17:17:34.865Z,23.14
2022-08-27T17:20:02.621Z,23.13
2022-08-27T17:22:29.312Z,23.10
2022-08-27T17:24:55.836Z,23.08
2022-08-27T17:27:22.402Z,23.03
2022-08-27T17:29:49.058Z,22.96
2022-08-27T17:32:16.163Z,22.93
2022-08-27T17:34:42.830Z,22.86
2022-08-27T17:37:09.551Z,22.79
2022-08-27T17:39:36.257Z,22.73
2022-08-27T17:42:05.201Z,22.62
2022-08-27T17:44:35.763Z,22.52
2022-08-27T17:47:05.194Z,22.31
2022-08-27T17:49:32.389Z,22.16
2022-08-27T17:52:02.342Z,22.08
2022-08-27T17:54:41.992Z,21.96
2022-08-27T17:57:29.499Z,21.81
2022-08-27T18:00:08.633Z,21.78
2022-08-27T18:02:38.802Z,21.78
2022-08-27T18:05:07.254Z,21.73
2022-08-27T18:07:39.131Z,21.68
2022-08-27T18:10:07.243Z,21.65
2022-08-27T18:12:34.022Z,21.64
2022-08-27T18:15:09.950Z,21.54
2022-08-27T18:17:42.525Z,21.31
2022-08-27T18:20:13.606Z,21.14
2022-08-27T18:22:41.995Z,20.99
2022-08-27T18:25:16.842Z,20.85
2022-08-27T18:27:45.291Z,20.74
2022-08-27T18:30:12.724Z,20.70
2022-08-27T18:32:41.074Z,20.67
2022-08-27T18:35:21.689Z,20.60
2022-08-27T18:37:48.571Z,20.52
2022-08-27T18:40:17.389Z,20.46
2022-08-27T18:42:45.242Z,20.39
2022-08-27T18:45:16.528Z,20.37
2022-08-27T18:47:43.517Z,20.32
2022-08-27T18:50:17.570Z,20.26
2022-08-27T18:52:46.511Z,20.15
2022-08-27T18:55:16.280Z,20.12
2022-08-27T18:57:43.115Z,20.01
2022-08-27T19:00:12.061Z,19.94
2022-08-27T19:02:40.082Z,19.91
2022-08-27T19:05:13.749Z,19.82
2022-08-27T19:07:40.363Z,19.73
2022-08-27T19:10:07.877Z,19.68
2022-08-27T19:12:34.575Z,19.66
2022-08-27T19:15:04.188Z,19.66
2022-08-27T19:17:34.220Z,19.61
2022-08-27T19:20:02.598Z,19.59
2022-08-27T19:22:31.876Z,19.56
2022-08-27T19:24:59.604Z,19.50
2022-08-27T19:27:28.931Z,19.46
2022-08-27T19:29:56.063Z,19.44
2022-08-27T19:32:22.780Z,19.44
2022-08-27T19:34:50.303Z,19.36
2022-08-27T19:37:20.905Z,19.30
2022-08-27T19:39:48.703Z,19.32
2022-08-27T19:42:15.521Z,19.30
2022-08-27T19:44:42.488Z,19.27
2022-08-27T19:47:11.011Z,19.23
2022-08-27T19:49:37.884Z,19.18
2022-08-27T19:52:08.331Z,19.16
2022-08-27T19:54:40.081Z,19.15
2022-08-27T19:57:18.573Z,19.12
2022-08-27T19:59:45.282Z,19.09
2022-08-27T20:02:12.626Z,19.06
2022-08-27T20:04:56.054Z,19.05
2022-08-27T20:07:26.621Z,19.00
2022-08-27T20:09:53.192Z,18.97
2022-08-27T20:12:21.862Z,18.91
2022-08-27T20:14:50.050Z,18.85
2022-08-27T20:17:18.674Z,18.79
2022-08-27T20:19:45.385Z,18.78
2022-08-27T20:22:13.253Z,18.72
2022-08-27T20:24:42.339Z,18.72
2022-08-27T20:27:08.993Z,18.66
2022-08-27T20:29:36.011Z,18.62
2022-08-27T20:32:04.353Z,18.58
2022-08-27T20:34:32.616Z,18.58
2022-08-27T20:37:02.368Z,18.55
2022-08-27T20:39:29.036Z,18.50
2022-08-27T20:41:55.645Z,18.46
2022-08-27T20:44:22.632Z,18.40
2022-08-27T20:46:52.203Z,18.35
2022-08-27T20:49:18.993Z,18.31
2022-08-27T20:51:51.242Z,18.27
2022-08-27T20:54:29.171Z,18.23
2022-08-27T20:56:55.832Z,18.17
2022-08-27T20:59:40.852Z,18.13
2022-08-27T21:02:10.462Z,18.09
2022-08-27T21:04:42.939Z,18.03
2022-08-27T21:07:09.587Z,17.99
2022-08-27T21:09:36.250Z,17.98
2022-08-27T21:12:22.585Z,17.92
2022-08-27T21:14:50.085Z,17.89
2022-08-27T21:17:21.510Z,17.86
2022-08-27T21:19:48.044Z,17.82
2022-08-27T21:22:15.875Z,17.78
2022-08-27T21:24:42.422Z,17.72
2022-08-27T21:27:09.066Z,17.68
2022-08-27T21:29:36.843Z,17.65
2022-08-27T21:32:04.931Z,17.59
2022-08-27T21:34:31.557Z,17.53
2022-08-27T21:36:59.144Z,17.48
2022-08-27T21:39:25.679Z,17.43
2022-08-27T21:41:52.674Z,17.37
2022-08-27T21:44:19.252Z,17.34
2022-08-27T21:46:45.874Z,17.30
2022-08-27T21:49:12.603Z,17.29
2022-08-27T21:51:39.242Z,17.26
2022-08-27T21:54:05.866Z,17.26
2022-08-27T21:56:33.135Z,17.20
2022-08-27T21:58:59.784Z,17.17
2022-08-27T22:01:26.375Z,17.13
2022-08-27T22:03:53.064Z,17.10
2022-08-27T22:06:19.910Z,17.04
2022-08-27T22:08:46.540Z,17.01
2022-08-27T22:11:13.273Z,16.97
2022-08-27T22:13:40.407Z,16.94
2022-08-27T22:16:07.530Z,16.91
2022-08-27T22:18:34.913Z,16.85
2022-08-27T22:21:02.675Z,16.84
2022-08-27T22:23:29.360Z,16.80
2022-08-27T22:25:55.914Z,16.73
2022-08-27T22:28:23.279Z,16.69
2022-08-27T22:30:49.950Z,16.67
2022-08-27T22:33:17.569Z,16.66
2022-08-27T22:35:44.579Z,16.59
2022-08-27T22:38:11.493Z,16.57
2022-08-27T22:40:39.381Z,16.56
2022-08-27T22:43:06.058Z,16.54
2022-08-27T22:45:34.545Z,16.53
2022-08-27T22:48:01.221Z,16.48
2022-08-27T22:50:29.832Z,16.43
2022-08-27T22:52:56.464Z,16.37
2022-08-27T22:55:41.693Z,16.36
2022-08-27T22:58:08.321Z,16.32
2022-08-27T23:00:37.486Z,16.28
2022-08-27T23:03:07.031Z,16.26
2022-08-27T23:05:41.723Z,16.25
2022-08-27T23:08:11.162Z,16.18
2022-08-27T23:10:38.618Z,16.17
2022-08-27T23:13:05.560Z,16.15
2022-08-27T23:15:32.265Z,16.11
2022-08-27T23:18:00.552Z,16.09
2022-08-27T23:20:28.393Z,16.04
2022-08-27T23:22:55.593Z,16.01
2022-08-27T23:25:43.688Z,15.97
2022-08-27T23:28:14.831Z,15.92
2022-08-27T23:30:43.332Z,15.89
2022-08-27T23:33:10.167Z,15.85
2022-08-27T23:35:36.815Z,15.80
2022-08-27T23:38:04.339Z,15.78
2022-08-27T23:40:31.128Z,15.77
2022-08-27T23:42:59.486Z,15.74
2022-08-27T23:45:27.089Z,15.73
2022-08-27T23:47:53.950Z,15.69
2022-08-27T23:50:21.491Z,15.64
2022-08-27T23:52:53.714Z,15.63
2022-08-27T23:55:20.610Z,15.61
2022-08-27T23:57:47.344Z,15.59
